Time;durP1;ratioP1;P1;durP2;ratioP2;P2;SDS_P1;SDS_P2;PMS_P1;PMS_P2;Temp;Humidity;BMP_temperature;BMP_pressure;BME280_temperature;BME280_humidity;BME280_pressure;Samples;Min_cycle;Max_cycle;Signal;HPM_P1;HPM_P2
2021/11/01 00:00:59;;;;;;;806.23;753.60;;;9.60;99.90;;;;;;6195664;23;20476;-84
2021/11/01 00:03:28;;;;;;;805.27;752.27;;;9.50;99.90;;;;;;6195770;23;20409;-84
2021/11/01 00:05:56;;;;;;;801.43;747.47;;;9.40;99.90;;;;;;6185537;23;20401;-83
2021/11/01 00:08:22;;;;;;;805.57;753.07;;;9.50;99.90;;;;;;6185664;23;20411;-84
2021/11/01 00:10:52;;;;;;;791.50;740.50;;;9.40;99.90;;;;;;6185593;23;20506;-83
2021/11/01 00:13:19;;;;;;;779.23;728.27;;;9.30;99.90;;;;;;6195608;23;20464;-84
2021/11/01 00:15:48;;;;;;;776.50;725.27;;;9.40;99.90;;;;;;6185776;23;20445;-84
2021/11/01 00:18:17;;;;;;;781.80;728.80;;;9.50;99.90;;;;;;6183747;23;20927;-84
2021/11/01 00:20:46;;;;;;;786.20;733.10;;;9.30;99.90;;;;;;6185248;23;20433;-84
2021/11/01 00:23:22;;;;;;;784.90;729.43;;;9.20;99.90;;;;;;6195136;23;20892;-84
2021/11/01 00:25:51;;;;;;;779.13;723.67;;;9.20;99.90;;;;;;6195503;23;20734;-84
2021/11/01 00:28:18;;;;;;;787.87;729.50;;;9.20;99.90;;;;;;6195196;23;20413;-83
2021/11/01 00:30:47;;;;;;;796.93;734.53;;;9.10;99.90;;;;;;6195554;23;20417;-84
2021/11/01 00:33:15;;;;;;;795.80;731.67;;;9.00;99.90;;;;;;6183766;23;20448;-83
2021/11/01 00:35:50;;;;;;;790.30;725.90;;;9.10;99.90;;;;;;6185101;23;20405;-83
2021/11/01 00:38:17;;;;;;;787.00;724.90;;;9.00;99.90;;;;;;6195474;23;20448;-84
2021/11/01 00:40:44;;;;;;;787.43;726.47;;;9.20;99.90;;;;;;6195468;23;20487;-83
2021/11/01 00:43:16;;;;;;;787.30;727.50;;;9.20;99.90;;;;;;6185306;23;20440;-84
2021/11/01 00:45:44;;;;;;;789.40;731.60;;;9.30;99.90;;;;;;6195419;23;20939;-84
2021/11/01 00:48:13;;;;;;;782.13;727.30;;;9.20;99.90;;;;;;6194104;23;20504;-84
2021/11/01 00:50:41;;;;;;;777.97;725.80;;;9.30;99.90;;;;;;6195336;23;20787;-83
2021/11/01 00:53:11;;;;;;;769.80;720.07;;;9.30;99.90;;;;;;6185321;23;20406;-84
2021/11/01 00:55:49;;;;;;;771.47;721.47;;;9.30;99.90;;;;;;6185413;23;20452;-84
2021/11/01 00:58:19;;;;;;;769.30;720.30;;;9.20;99.90;;;;;;6195342;23;20408;-84
2021/11/01 01:00:46;;;;;;;763.27;714.57;;;9.10;99.90;;;;;;6187088;23;20471;-84
2021/11/01 01:03:15;;;;;;;740.23;695.90;;;9.30;99.90;;;;;;6185837;23;20476;-84
2021/11/01 01:05:43;;;;;;;729.13;686.93;;;9.20;99.90;;;;;;6187271;23;20432;-83
2021/11/01 01:08:10;;;;;;;736.00;694.17;;;9.30;99.90;;;;;;6187271;23;20466;-84
2021/11/01 01:10:37;;;;;;;751.20;705.50;;;9.20;99.90;;;;;;6196646;23;20464;-84
2021/11/01 01:13:06;;;;;;;741.80;697.90;;;9.30;99.90;;;;;;6196854;23;20408;-84
2021/11/01 01:15:43;;;;;;;741.17;698.10;;;9.20;99.90;;;;;;6186648;23;20438;-84
2021/11/01 01:18:16;;;;;;;745.43;702.57;;;9.20;99.90;;;;;;6195452;23;20491;-84
2021/11/01 01:20:43;;;;;;;745.83;702.00;;;9.10;99.90;;;;;;6187038;23;20437;-84
2021/11/01 01:23:10;;;;;;;754.93;707.97;;;8.90;99.90;;;;;;6186985;23;20405;-84
2021/11/01 01:25:55;;;;;;;763.63;714.40;;;8.90;99.90;;;;;;6197207;23;20401;-84
2021/11/01 01:28:22;;;;;;;761.10;712.23;;;8.90;99.90;;;;;;6196107;23;20889;-84
2021/11/01 01:30:51;;;;;;;761.87;712.30;;;8.90;99.90;;;;;;6187100;23;20401;-84
2021/11/01 01:33:18;;;;;;;775.57;725.27;;;8.80;99.90;;;;;;6185244;23;20488;-84
2021/11/01 01:35:47;;;;;;;777.30;726.10;;;8.60;99.90;;;;;;6186811;23;20405;-84
2021/11/01 01:38:16;;;;;;;788.13;734.30;;;8.50;99.90;;;;;;6187006;23;20429;-84
2021/11/01 01:40:43;;;;;;;790.93;734.47;;;8.30;99.90;;;;;;6186809;23;20440;-84
2021/11/01 01:43:13;;;;;;;787.20;730.60;;;8.30;99.90;;;;;;6196562;23;20467;-83
2021/11/01 01:45:41;;;;;;;788.73;732.90;;;8.50;99.90;;;;;;6186589;23;20405;-84
2021/11/01 01:48:18;;;;;;;788.60;731.10;;;8.30;99.90;;;;;;6185005;23;20398;-84
2021/11/01 01:50:46;;;;;;;786.53;730.63;;;8.40;99.90;;;;;;6186955;23;20412;-83
2021/11/01 01:53:13;;;;;;;783.40;727.50;;;8.40;99.90;;;;;;6186345;23;20903;-84
2021/11/01 01:55:40;;;;;;;776.57;720.10;;;8.30;99.90;;;;;;6186415;23;20398;-83
2021/11/01 01:58:07;;;;;;;774.40;719.50;;;8.50;99.90;;;;;;6196616;23;20420;-84
2021/11/01 02:00:49;;;;;;;766.17;711.67;;;8.50;99.90;;;;;;6186499;23;20738;-83
2021/11/01 02:03:17;;;;;;;766.00;712.43;;;8.50;99.90;;;;;;6184960;23;20402;-83
2021/11/01 02:05:50;;;;;;;758.37;705.90;;;8.50;99.90;;;;;;6186652;23;20401;-84
2021/11/01 02:08:20;;;;;;;755.17;703.20;;;8.50;99.90;;;;;;6196003;23;20437;-84
2021/11/01 02:10:54;;;;;;;759.77;708.50;;;8.60;99.90;;;;;;6196073;23;20405;-84
2021/11/01 02:13:26;;;;;;;763.50;712.07;;;8.60;99.90;;;;;;6196412;23;20737;-84
2021/11/01 02:15:55;;;;;;;761.80;710.27;;;8.40;99.90;;;;;;6196700;23;20773;-83
2021/11/01 02:18:29;;;;;;;769.37;717.10;;;8.60;99.90;;;;;;6185639;23;20409;-84
2021/11/01 02:21:07;;;;;;;764.97;714.57;;;8.50;99.90;;;;;;6186490;23;20511;-84
2021/11/01 02:23:44;;;;;;;764.37;713.97;;;8.50;99.90;;;;;;6186040;23;20904;-84
2021/11/01 02:26:14;;;;;;;774.83;723.23;;;8.50;99.90;;;;;;6186199;23;20398;-84
2021/11/01 02:28:44;;;;;;;775.17;723.53;;;8.40;99.90;;;;;;6186603;23;20733;-84
2021/11/01 02:31:16;;;;;;;768.30;715.67;;;8.30;99.90;;;;;;6194671;23;20423;-84
2021/11/01 02:33:45;;;;;;;775.43;722.63;;;8.20;99.90;;;;;;6186373;23;20409;-83
2021/11/01 02:36:12;;;;;;;780.47;724.77;;;8.20;99.90;;;;;;6195838;23;20413;-84
2021/11/01 02:38:40;;;;;;;770.57;715.47;;;8.20;99.90;;;;;;6186449;23;20400;-84
2021/11/01 02:41:24;;;;;;;763.47;708.60;;;8.40;99.90;;;;;;6196175;23;20479;-83
2021/11/01 02:43:52;;;;;;;773.80;718.40;;;8.30;99.90;;;;;;6195986;23;20456;-84
2021/11/01 02:46:20;;;;;;;782.80;725.70;;;8.30;99.90;;;;;;6195023;23;20406;-84
2021/11/01 02:48:47;;;;;;;780.40;722.40;;;8.20;99.90;;;;;;6185904;23;20405;-84
2021/11/01 02:51:18;;;;;;;782.50;721.90;;;8.30;99.90;;;;;;6195868;23;20393;-84
2021/11/01 02:53:45;;;;;;;776.50;714.07;;;8.20;99.90;;;;;;6186323;23;20493;-84
2021/11/01 02:56:13;;;;;;;772.63;710.77;;;8.20;99.90;;;;;;6196203;23;20435;-84
2021/11/01 02:58:43;;;;;;;780.63;717.67;;;8.30;99.90;;;;;;6186284;23;20413;-83
2021/11/01 03:01:11;;;;;;;780.33;718.87;;;8.30;99.90;;;;;;6184695;23;20523;-83
2021/11/01 03:03:39;;;;;;;783.43;722.27;;;8.20;99.90;;;;;;6186205;23;20405;-84
2021/11/01 03:06:09;;;;;;;778.63;717.27;;;8.20;99.90;;;;;;6196123;23;20420;-84
2021/11/01 03:08:39;;;;;;;781.47;720.80;;;8.30;99.90;;;;;;6196067;23;20821;-84
2021/11/01 03:11:08;;;;;;;787.73;726.83;;;8.30;99.90;;;;;;6196063;23;20409;-84
2021/11/01 03:13:36;;;;;;;796.70;735.73;;;8.10;99.90;;;;;;6195622;23;20706;-84
2021/11/01 03:16:10;;;;;;;801.30;740.13;;;8.00;99.90;;;;;;6184096;23;20436;-83
2021/11/01 03:18:46;;;;;;;819.27;754.97;;;7.90;99.90;;;;;;6195716;23;20432;-84
2021/11/01 03:21:17;;;;;;;820.80;756.17;;;7.70;99.90;;;;;;6159064;23;20451;-83
2021/11/01 03:23:48;;;;;;;820.03;752.47;;;7.70;99.90;;;;;;6185441;23;20405;-83
2021/11/01 03:26:18;;;;;;;821.23;752.57;;;7.60;99.90;;;;;;6185816;23;20406;-84
2021/11/01 03:28:50;;;;;;;810.90;740.00;;;7.60;99.90;;;;;;6195754;23;20447;-83
2021/11/01 03:31:20;;;;;;;823.50;753.10;;;7.70;99.90;;;;;;6184132;23;20970;-83
2021/11/01 03:33:48;;;;;;;823.27;750.73;;;7.60;99.90;;;;;;6195502;23;20437;-83
2021/11/01 03:36:17;;;;;;;838.00;765.07;;;7.70;99.90;;;;;;6185805;23;20480;-83
2021/11/01 03:38:44;;;;;;;829.37;755.23;;;7.50;99.90;;;;;;6195369;23;20492;-83
2021/11/01 03:41:13;;;;;;;828.53;754.77;;;7.60;99.90;;;;;;6185975;23;20436;-83
2021/11/01 03:43:44;;;;;;;842.53;768.27;;;7.70;99.90;;;;;;6186093;23;20402;-84
2021/11/01 03:46:14;;;;;;;834.40;759.53;;;7.70;99.90;;;;;;6194367;23;20440;-83
2021/11/01 03:48:43;;;;;;;856.27;781.70;;;7.70;99.90;;;;;;6185788;23;20405;-84
2021/11/01 03:51:37;;;;;;;869.43;794.57;;;7.60;99.90;;;;;;6185483;23;20455;-85
2021/11/01 03:54:03;;;;;;;875.87;799.10;;;7.50;99.90;;;;;;6185105;23;20487;-81
2021/11/01 03:56:32;;;;;;;865.37;789.87;;;7.40;99.90;;;;;;6185645;23;20436;-84
2021/11/01 03:58:59;;;;;;;868.93;793.43;;;7.30;99.90;;;;;;6185361;23;20928;-84
2021/11/01 04:01:29;;;;;;;874.90;798.83;;;7.20;99.90;;;;;;6184215;23;20433;-84
2021/11/01 04:03:59;;;;;;;870.87;794.50;;;7.30;99.90;;;;;;6195214;23;21017;-83
2021/11/01 04:06:27;;;;;;;877.87;800.27;;;7.20;99.90;;;;;;6195612;23;20706;-84
2021/11/01 04:08:56;;;;;;;878.60;801.10;;;7.20;99.90;;;;;;6194988;23;20770;-84
2021/11/01 04:11:27;;;;;;;872.70;795.10;;;7.30;99.90;;;;;;6185227;23;20433;-85
2021/11/01 04:13:59;;;;;;;902.90;824.10;;;7.30;99.90;;;;;;6185611;23;20441;-84
2021/11/01 04:16:36;;;;;;;899.90;820.50;;;7.30;99.90;;;;;;6194187;23;20405;-84
2021/11/01 04:19:20;;;;;;;896.97;817.80;;;7.20;99.90;;;;;;6185618;23;20432;-84
2021/11/01 04:21:49;;;;;;;894.40;815.73;;;7.20;99.90;;;;;;6195457;23;20433;-84
2021/11/01 04:24:19;;;;;;;910.30;830.57;;;7.20;99.90;;;;;;6185557;23;20734;-84
2021/11/01 04:26:47;;;;;;;908.97;829.00;;;7.30;99.90;;;;;;6195245;23;20504;-84
2021/11/01 04:29:15;;;;;;;903.23;823.60;;;7.30;99.90;;;;;;6185157;23;20437;-84
2021/11/01 04:31:45;;;;;;;917.73;836.83;;;7.20;99.90;;;;;;6193881;23;20732;-84
2021/11/01 04:34:18;;;;;;;891.30;812.20;;;7.10;99.90;;;;;;6186950;23;20403;-84
2021/11/01 04:36:45;;;;;;;893.97;815.50;;;7.10;99.90;;;;;;6197310;23;20880;-84
2021/11/01 04:39:16;;;;;;;912.93;834.10;;;7.10;99.90;;;;;;6187477;23;20433;-84
2021/11/01 04:41:58;;;;;;;913.97;834.20;;;7.00;99.90;;;;;;6197421;23;20483;-84
2021/11/01 04:45:00;;;;;;;913.93;833.97;;;6.90;99.90;;;;;;6187613;23;20389;-84
2021/11/01 04:53:02;;;;;;;871.07;793.87;;;7.40;99.90;;;;;;6197277;23;20404;-83
2021/11/01 04:55:38;;;;;;;864.37;789.90;;;7.60;99.90;;;;;;6197039;23;20408;-84
2021/11/01 04:58:05;;;;;;;852.07;780.07;;;8.00;99.90;;;;;;6187277;23;20492;-84
2021/11/01 05:00:33;;;;;;;847.47;780.27;;;8.10;99.90;;;;;;6197098;23;20436;-83
2021/11/01 05:03:04;;;;;;;825.03;760.80;;;8.30;99.90;;;;;;6185501;23;20413;-85
2021/11/01 05:05:35;;;;;;;837.50;778.00;;;8.30;99.90;;;;;;6196943;23;20779;-84
2021/11/01 05:08:03;;;;;;;836.50;777.93;;;8.00;99.90;;;;;;6197149;23;20444;-84
2021/11/01 05:10:40;;;;;;;830.63;772.20;;;8.00;99.90;;;;;;6197181;23;20492;-84
2021/11/01 05:13:12;;;;;;;832.63;774.90;;;7.80;99.90;;;;;;6196941;23;20445;-85
2021/11/01 05:15:41;;;;;;;821.13;762.63;;;7.60;99.90;;;;;;6196651;23;20528;-78
2021/11/01 05:18:19;;;;;;;821.23;760.30;;;7.40;99.90;;;;;;6185817;23;20460;-80
2021/11/01 05:20:57;;;;;;;803.30;744.00;;;7.70;99.90;;;;;;6186818;23;20498;-83
2021/11/01 05:23:35;;;;;;;747.80;696.00;;;8.00;99.90;;;;;;6196719;23;20898;-84
2021/11/01 05:26:04;;;;;;;728.77;681.93;;;8.30;99.90;;;;;;6186994;23;20401;-78
2021/11/01 05:28:48;;;;;;;686.13;646.23;;;8.60;99.90;;;;;;6197132;23;20409;-84
2021/11/01 05:31:22;;;;;;;645.60;609.93;;;8.80;99.90;;;;;;6195151;23;20435;-84
2021/11/01 05:33:59;;;;;;;614.83;583.67;;;8.90;99.90;;;;;;6196604;23;20409;-84
2021/11/01 05:36:36;;;;;;;596.13;567.90;;;9.00;99.90;;;;;;6186923;23;20405;-84
2021/11/01 05:39:10;;;;;;;543.87;521.13;;;8.90;99.90;;;;;;6196564;23;20401;-84
2021/11/01 05:41:57;;;;;;;535.87;513.27;;;9.00;99.90;;;;;;6196098;23;20454;-82
2021/11/01 05:44:32;;;;;;;526.03;504.70;;;9.00;99.90;;;;;;6196554;23;20460;-84
2021/11/01 05:47:05;;;;;;;446.03;427.40;;;9.00;99.90;;;;;;6195239;23;20401;-83
2021/11/01 05:49:36;;;;;;;367.67;354.37;;;9.10;99.90;;;;;;6196582;23;20780;-84
2021/11/01 05:52:24;;;;;;;379.30;365.33;;;9.20;98.90;;;;;;6186806;23;20412;-84
2021/11/01 05:54:55;;;;;;;342.00;329.37;;;9.20;98.70;;;;;;6186594;23;20401;-84
2021/11/01 05:57:31;;;;;;;307.73;296.77;;;9.20;97.80;;;;;;6196833;23;20405;-84
2021/11/01 06:00:19;;;;;;;237.23;229.23;;;9.10;97.50;;;;;;6196315;23;20413;-84
2021/11/01 06:02:52;;;;;;;238.97;230.77;;;9.20;96.80;;;;;;6194774;23;20420;-84
2021/11/01 06:05:26;;;;;;;240.87;233.07;;;9.10;96.70;;;;;;6196356;23;20417;-84
2021/11/01 06:08:21;;;;;;;168.93;162.93;;;9.20;96.10;;;;;;6186675;23;20452;-84
2021/11/01 06:13:24;;;;;;;168.07;161.80;;;9.10;96.10;;;;;;6186538;23;20770;-84
2021/11/01 06:13:41;;;;;;;159.57;154.07;;;9.10;96.10;;;;;;6185779;23;20475;-84
2021/11/01 06:16:09;;;;;;;112.60;108.43;;;9.10;95.70;;;;;;6194718;23;20762;-84
2021/11/01 06:18:40;;;;;;;122.77;118.00;;;9.10;95.60;;;;;;6196488;23;20471;-85
2021/11/01 06:21:13;;;;;;;125.43;120.97;;;9.00;95.60;;;;;;6196364;23;20750;-84
2021/11/01 06:23:51;;;;;;;113.43;109.40;;;9.00;95.50;;;;;;6186558;23;20456;-84
2021/11/01 06:26:46;;;;;;;113.53;108.20;;;9.00;95.70;;;;;;6186108;23;20967;-83
2021/11/01 06:29:32;;;;;;;116.77;112.47;;;9.00;95.30;;;;;;6196544;23;20464;-84
2021/11/01 06:32:13;;;;;;;103.23;99.50;;;8.90;95.20;;;;;;6184949;23;20401;-84
2021/11/01 06:38:59;;;;;;;97.57;93.33;;;8.90;95.00;;;;;;6185706;23;20500;-84
2021/11/01 06:40:37;;;;;;;93.17;89.07;;;8.90;94.90;;;;;;6098960;23;20409;-83
2021/11/01 06:43:08;;;;;;;84.97;81.77;;;9.00;94.70;;;;;;6196173;23;20440;-83
2021/11/01 06:51:11;;;;;;;70.63;67.73;;;9.10;94.40;;;;;;6195905;23;20438;-82
2021/11/01 06:56:43;;;;;;;77.10;73.97;;;9.00;94.20;;;;;;6177852;23;20409;-84
2021/11/01 07:15:59;;;;;;;114.50;109.13;;;9.20;94.90;;;;;;6195559;23;20436;-82
2021/11/01 07:18:31;;;;;;;136.90;130.30;;;9.10;94.90;;;;;;6195406;23;20405;-83
2021/11/01 07:21:10;;;;;;;139.83;133.90;;;9.10;95.30;;;;;;6185795;23;20437;-83
2021/11/01 07:24:03;;;;;;;142.47;136.87;;;9.10;95.60;;;;;;6195904;23;20419;-84
2021/11/01 08:21:57;;;;;;;22.30;19.93;;;10.50;91.20;;;;;;6155420;23;20485;-84
2021/11/01 09:41:09;;;;;;;7.83;2.03;;;13.50;58.40;;;;;;5962608;23;20435;-83
2021/11/01 09:43:38;;;;;;;9.80;1.90;;;13.90;54.50;;;;;;6016528;23;20493;-78
2021/11/01 10:33:58;;;;;;;;;;;;;;;;;;;;;
2021/11/01 10:37:04;;;;;;;10.00;2.03;;;16.00;37.10;;;;;;6142157;23;20447;-86
2021/11/01 13:51:49;;;;;;;;;;;;;;;;;;;;;
2021/11/01 15:09:15;;;;;;;10.80;1.60;;;13.60;31.90;;;;;;5952524;23;20423;-84
2021/11/01 16:20:37;;;;;;;6.23;1.27;;;10.50;49.70;;;;;;6063690;23;20485;-83
2021/11/01 16:27:15;;;;;;;13.10;2.63;;;10.50;54.10;;;;;;5973671;24;20423;-84
2021/11/01 16:40:28;;;;;;;;;;;;;;;;;;;;;
2021/11/01 16:53:09;;;;;;;;;;;;;;;;;;;;;
2021/11/01 17:06:25;;;;;;;7.57;4.80;;;8.70;74.00;;;;;;6068854;23;20445;-82
2021/11/01 17:21:35;;;;;;;;;;;;;;;;;;;;;
2021/11/01 17:31:35;;;;;;;;;;;;;;;;;;;;;
2021/11/01 18:37:25;;;;;;;16.30;11.57;;;8.60;81.60;;;;;;5987083;23;21141;-83
2021/11/01 18:51:12;;;;;;;;;;;;;;;;;;;;;
2021/11/01 18:57:29;;;;;;;16.57;8.90;;;8.70;80.80;;;;;;6062092;23;20432;-83
2021/11/01 19:03:39;;;;;;;15.40;13.20;;;8.60;83.80;;;;;;6149300;23;20442;-84
2021/11/01 19:06:35;;;;;;;;;;;;;;;;;;;;;
2021/11/01 19:09:38;;;;;;;;;;;;;;;;;;;;;
2021/11/01 20:05:12;;;;;;;642.63;604.57;;;6.00;99.90;;;;;;6191086;23;20461;-82
2021/11/01 21:36:36;;;;;;;;;;;;;;;;;;;;;
2021/11/01 21:49:18;;;;;;;;;;;;;;;;;;;;;
2021/11/01 22:27:17;;;;;;;;;;;;;;;;;;;;;
